Aranspass, Texas
Current Conditions -  °F | °C
As of 5:35 PM on Monday 20 Oct 2014 (Local Time) from KTFP Reporting Station
Broken Clouds Broken Clouds  
Wind Chill: 24°   Ceiling: 12000
Heat Index: 24°   Visibility: 10mi
Dew Point: 23°   Wind: 9mph
Humidity: 89%   Direction: 60°ENE
Pressure: 29.94"   Gusts: NA
Location:  27.9399°N, 97.1805°W
Report Text: KTFP 202235Z AUTO 06008KT 10SM BKN120 24/23 A2994 RMK AO2 T02440225
Loading
Personal Weather Stations






























Interactive Weather Map
Tropical Storm Tracking
New forecast layout! Learn more

10-Day Weather Forecast

Advertisements
Track Severe Weather on mobile